Ocean City (26N)
Ocean City, NJ
Field Elevation: 8
Lat: 39°15.81N  Long: 74°36.45W
CTAF/Unicom Freq: 122.7000
   
     For Weather-by-Phone, call (609) 398-0705
Weather Advisories
2017-09-19   15:21 Z
Altimeter 29.89" Hg
Wind 010° @ 15 KT
Gusts 22 KT
Visibility 10 SM
Ceiling FEW016
Temperature 22° C (72° F)
Dewpoint 19° C (66° F)
Relative Humidity 85%
Density Altitude --
Condensation Altitude 1,400 feet
Wind and Runways
Indicated Runway = 06
Headwind = 10 kt
Crosswind = 12 kt
History
 
 
 
More Info
All DigiWx sites map
Weather Radar
NOAA Forecast
 
Airport IQ 5010
(HMIEM) Shock Trauma Ctr
(PN44) Upper Gwynedd Heliport
 
about DigiWx
 
FAA Disclaimer: The data displayed is for advisory purposes only and is not to be used for flight planning or operations. For official data, please call (609) 398-0705 to hear the current automated AWOS voice message.
  METAR 26N 191521Z AUTO 01015G22KT VIS 10 SM FEW016 22/19 A2989